createdAt,value
2018-07-06T00:01:17.749Z,91.48
2018-07-06T00:04:03.037Z,91.51
2018-07-06T00:06:48.364Z,91.42
2018-07-06T00:09:33.410Z,92.23
2018-07-06T00:12:18.700Z,91.74
2018-07-06T00:15:04.049Z,91.92
2018-07-06T00:17:49.252Z,91.85
2018-07-06T00:20:34.491Z,93.20
2018-07-06T00:23:19.706Z,93.32
2018-07-06T00:26:04.977Z,92.08
2018-07-06T00:28:50.281Z,92.16
2018-07-06T00:31:35.380Z,92.24
2018-07-06T00:34:20.758Z,91.46
2018-07-06T00:37:06.057Z,91.63
2018-07-06T00:39:51.437Z,92.03
2018-07-06T00:42:36.601Z,91.17
2018-07-06T00:45:21.704Z,92.06
2018-07-06T00:48:07.050Z,92.38
2018-07-06T00:50:52.440Z,93.30
2018-07-06T00:53:37.621Z,93.19
2018-07-06T00:56:22.809Z,93.45
2018-07-06T00:59:08.041Z,93.05
2018-07-06T01:01:53.471Z,93.81
2018-07-06T01:04:38.523Z,93.78
2018-07-06T01:07:23.709Z,92.96
2018-07-06T01:10:08.831Z,92.52
2018-07-06T01:13:01.221Z,93.15
2018-07-06T01:15:46.352Z,93.59
2018-07-06T01:18:31.469Z,94.52
2018-07-06T01:21:16.733Z,92.75
2018-07-06T01:24:01.807Z,92.85
2018-07-06T01:26:47.304Z,93.32
2018-07-06T01:29:32.498Z,93.63
2018-07-06T01:32:17.906Z,93.98
2018-07-06T01:35:03.352Z,93.61
2018-07-06T01:37:48.771Z,93.10
2018-07-06T01:40:28.127Z,93.11
2018-07-06T01:43:13.334Z,92.71
2018-07-06T01:45:58.646Z,92.76
2018-07-06T01:48:43.685Z,93.56
2018-07-06T01:51:29.188Z,94.44
2018-07-06T01:54:14.530Z,94.52
2018-07-06T01:56:59.737Z,93.95
2018-07-06T01:59:44.837Z,94.58
2018-07-06T02:02:30.189Z,94.61
2018-07-06T02:05:15.563Z,94.36
2018-07-06T02:08:01.003Z,95.22
2018-07-06T02:10:46.130Z,94.67
2018-07-06T02:13:31.213Z,94.43
2018-07-06T02:16:16.549Z,95.32
2018-07-06T02:19:01.721Z,93.68
2018-07-06T02:21:47.055Z,95.28
2018-07-06T02:24:32.214Z,94.89
2018-07-06T02:27:17.409Z,95.12
2018-07-06T02:30:02.485Z,94.13
2018-07-06T02:32:47.881Z,94.17
2018-07-06T02:35:32.897Z,95.58
2018-07-06T02:38:18.324Z,94.98
2018-07-06T02:41:03.686Z,95.61
2018-07-06T02:43:49.081Z,95.59
2018-07-06T02:46:34.522Z,95.71
2018-07-06T02:49:19.721Z,94.84
2018-07-06T02:52:05.188Z,95.23
2018-07-06T02:54:50.529Z,95.25
2018-07-06T02:57:35.721Z,94.73
2018-07-06T03:00:21.025Z,94.63
2018-07-06T03:03:06.462Z,94.39
2018-07-06T03:05:51.872Z,94.71
2018-07-06T03:08:37.122Z,95.66
2018-07-06T03:11:22.720Z,95.67
2018-07-06T03:14:07.975Z,95.21
2018-07-06T03:16:53.285Z,96.36
2018-07-06T03:19:38.440Z,94.60
2018-07-06T03:22:23.689Z,94.92
2018-07-06T03:25:09.026Z,95.89
2018-07-06T03:27:48.585Z,94.72
2018-07-06T03:30:34.373Z,96.19
2018-07-06T03:33:19.573Z,96.41
2018-07-06T03:36:04.846Z,95.91
2018-07-06T03:38:50.042Z,95.91
2018-07-06T03:41:35.513Z,95.38
2018-07-06T03:44:20.961Z,95.39
2018-07-06T03:47:05.959Z,95.19
2018-07-06T03:49:51.049Z,95.67
2018-07-06T03:52:36.882Z,95.36
2018-07-06T03:55:22.225Z,94.67
2018-07-06T03:58:07.597Z,96.41
2018-07-06T04:00:52.871Z,96.30
2018-07-06T04:03:38.197Z,95.00
2018-07-06T04:06:23.442Z,95.63
2018-07-06T04:09:08.563Z,96.77
2018-07-06T04:11:53.847Z,95.34
2018-07-06T04:14:39.134Z,95.70
2018-07-06T04:17:24.469Z,94.69
2018-07-06T04:20:09.791Z,94.36
2018-07-06T04:22:54.989Z,94.41
2018-07-06T04:25:40.313Z,94.47
2018-07-06T04:28:25.425Z,94.97
2018-07-06T04:31:10.765Z,93.95
2018-07-06T04:33:55.802Z,94.36
2018-07-06T04:36:41.099Z,93.90
2018-07-06T04:39:26.388Z,94.04
2018-07-06T04:42:11.962Z,94.20
2018-07-06T04:44:57.250Z,93.51
2018-07-06T04:47:42.556Z,92.89
2018-07-06T04:50:27.622Z,92.34
2018-07-06T04:53:13.109Z,92.71
2018-07-06T04:55:58.463Z,91.17
2018-07-06T04:58:43.717Z,89.87
2018-07-06T05:01:29.004Z,90.27
2018-07-06T05:04:14.346Z,88.61
2018-07-06T05:06:59.684Z,87.71
2018-07-06T05:09:44.799Z,87.50
2018-07-06T05:12:29.981Z,87.25
2018-07-06T05:15:15.302Z,86.66
2018-07-06T05:18:00.722Z,86.10
2018-07-06T05:20:46.102Z,84.86
2018-07-06T05:23:31.125Z,85.13
2018-07-06T05:26:16.093Z,84.25
2018-07-06T05:29:01.342Z,83.64
2018-07-06T05:31:46.585Z,85.00
2018-07-06T05:34:31.534Z,85.71
2018-07-06T05:37:16.882Z,85.31
2018-07-06T05:40:02.170Z,83.93
2018-07-06T05:42:47.387Z,83.78
2018-07-06T05:45:32.743Z,82.48
2018-07-06T05:48:18.079Z,80.62
2018-07-06T05:51:03.285Z,80.44
2018-07-06T05:53:48.624Z,79.13
2018-07-06T05:56:33.947Z,80.21
2018-07-06T05:59:19.167Z,78.16
2018-07-06T06:02:04.416Z,80.44
2018-07-06T06:04:49.627Z,79.48
2018-07-06T06:07:23.457Z,80.61
2018-07-06T06:09:51.821Z,80.98
2018-07-06T06:12:20.250Z,79.95
2018-07-06T06:14:49.567Z,78.62
2018-07-06T06:17:17.825Z,77.02
2018-07-06T06:19:45.998Z,77.95
2018-07-06T06:22:14.128Z,75.28
2018-07-06T06:24:42.406Z,71.73
2018-07-06T06:27:10.557Z,70.03
2018-07-06T06:29:38.975Z,72.06
2018-07-06T06:32:08.527Z,72.98
2018-07-06T06:34:36.752Z,72.93
2018-07-06T06:37:05.007Z,72.09
2018-07-06T06:39:33.648Z,72.70
2018-07-06T06:42:02.065Z,69.86
2018-07-06T06:44:30.386Z,70.80
2018-07-06T06:46:59.390Z,72.29
2018-07-06T06:49:28.882Z,69.40
2018-07-06T06:51:57.219Z,67.19
2018-07-06T06:54:25.927Z,67.25
2018-07-06T06:56:54.453Z,69.08
2018-07-06T06:59:23.335Z,69.85
2018-07-06T07:01:51.583Z,70.44
2018-07-06T07:04:20.684Z,72.00
2018-07-06T07:06:48.983Z,73.23
2018-07-06T07:09:17.235Z,73.23
2018-07-06T07:11:45.615Z,73.83
2018-07-06T07:14:13.949Z,73.14
2018-07-06T07:16:42.098Z,70.49
2018-07-06T07:19:10.464Z,70.47
2018-07-06T07:21:38.947Z,69.37
2018-07-06T07:24:07.203Z,71.90
2018-07-06T07:26:35.696Z,70.95
2018-07-06T07:29:04.079Z,72.13
2018-07-06T07:31:32.355Z,73.35
2018-07-06T07:34:00.714Z,72.98
2018-07-06T07:36:29.209Z,71.35
2018-07-06T07:38:57.928Z,72.54
2018-07-06T07:41:26.496Z,72.10
2018-07-06T07:43:54.937Z,70.10
2018-07-06T07:46:23.271Z,70.23
2018-07-06T07:48:51.622Z,70.39
2018-07-06T07:52:04.330Z,71.08
2018-07-06T07:54:49.347Z,70.72
2018-07-06T07:57:18.520Z,70.36
2018-07-06T07:59:48.362Z,69.76
2018-07-06T08:02:17.046Z,71.21
2018-07-06T08:04:45.976Z,68.39
2018-07-06T08:07:14.318Z,68.84
2018-07-06T08:09:43.093Z,67.93
2018-07-06T08:12:11.838Z,66.92
2018-07-06T08:14:40.210Z,67.11
2018-07-06T08:17:08.982Z,64.85
2018-07-06T08:19:37.504Z,66.18
2018-07-06T08:22:06.004Z,64.31
2018-07-06T08:24:34.472Z,64.62
2018-07-06T08:27:03.107Z,65.44
2018-07-06T08:29:31.550Z,64.14
2018-07-06T08:32:00.763Z,62.44
2018-07-06T08:34:46.278Z,63.48
2018-07-06T08:37:41.906Z,62.03
2018-07-06T08:40:10.567Z,63.20
2018-07-06T08:42:39.936Z,64.90
2018-07-06T08:45:08.781Z,65.89
2018-07-06T08:47:37.044Z,65.15
2018-07-06T08:50:06.444Z,65.63
2018-07-06T08:52:35.413Z,65.06
2018-07-06T08:55:04.704Z,64.27
2018-07-06T08:57:34.321Z,61.99
2018-07-06T09:00:03.684Z,61.47
2018-07-06T09:02:32.465Z,62.78
2018-07-06T09:05:01.511Z,61.26
2018-07-06T09:07:30.276Z,61.12
2018-07-06T09:09:59.616Z,61.82
2018-07-06T09:12:28.283Z,59.90
2018-07-06T09:14:57.192Z,57.54
2018-07-06T09:17:25.765Z,57.28
2018-07-06T09:19:55.513Z,57.82
2018-07-06T09:22:23.838Z,58.65
2018-07-06T09:24:53.519Z,58.58
2018-07-06T09:27:23.495Z,55.86
2018-07-06T09:29:51.789Z,55.45
2018-07-06T09:32:20.985Z,56.27
2018-07-06T09:34:49.577Z,57.12
2018-07-06T09:37:17.905Z,58.53
2018-07-06T09:39:47.127Z,58.54
2018-07-06T09:42:16.003Z,57.13
2018-07-06T09:44:44.462Z,56.19
2018-07-06T09:47:12.889Z,53.53
2018-07-06T09:49:41.359Z,51.02
2018-07-06T09:52:09.907Z,52.23
2018-07-06T09:54:38.408Z,53.05
2018-07-06T09:57:06.955Z,51.88
2018-07-06T09:59:35.266Z,51.45
2018-07-06T10:02:05.890Z,52.05
2018-07-06T10:04:34.367Z,53.33
2018-07-06T10:07:02.968Z,51.84
2018-07-06T10:09:32.322Z,51.09
2018-07-06T10:12:00.705Z,52.21
2018-07-06T10:14:29.419Z,52.15
2018-07-06T10:16:57.919Z,46.21
2018-07-06T10:19:26.280Z,45.70
2018-07-06T10:21:54.994Z,45.18
2018-07-06T10:24:23.623Z,46.53
2018-07-06T10:26:52.159Z,44.31
2018-07-06T10:30:29.603Z,44.82
2018-07-06T10:32:58.314Z,45.03
2018-07-06T10:35:26.623Z,45.63
2018-07-06T10:37:55.073Z,47.62
2018-07-06T10:40:23.461Z,46.78
2018-07-06T10:42:51.993Z,47.23
2018-07-06T10:45:26.106Z,45.59
2018-07-06T10:47:54.522Z,45.50
2018-07-06T10:50:23.117Z,43.00
2018-07-06T10:52:51.691Z,41.79
2018-07-06T10:55:21.110Z,42.92
2018-07-06T10:57:49.753Z,43.23
2018-07-06T11:00:18.539Z,43.25
2018-07-06T11:02:46.992Z,43.90
2018-07-06T11:05:15.720Z,43.53
2018-07-06T11:07:45.042Z,41.89
2018-07-06T11:10:14.381Z,40.88
2018-07-06T11:12:42.898Z,42.95
2018-07-06T11:15:11.609Z,40.24
2018-07-06T11:17:40.039Z,40.09
2018-07-06T11:20:08.427Z,42.54
2018-07-06T11:22:36.917Z,42.56
2018-07-06T11:25:05.582Z,41.31
2018-07-06T11:27:34.013Z,41.15
2018-07-06T11:30:02.348Z,40.30
2018-07-06T11:32:30.853Z,40.48
2018-07-06T11:34:59.981Z,41.22
2018-07-06T11:37:28.397Z,41.24
2018-07-06T11:39:57.548Z,39.35
2018-07-06T11:42:26.111Z,41.48
2018-07-06T11:44:54.495Z,40.42
2018-07-06T11:47:23.762Z,41.80
2018-07-06T11:49:55.758Z,42.52
2018-07-06T11:52:24.178Z,39.74
2018-07-06T11:54:52.502Z,38.92
2018-07-06T11:57:21.296Z,38.00
2018-07-06T11:59:49.505Z,39.13
2018-07-06T12:02:18.507Z,39.00
2018-07-06T12:04:46.943Z,39.07
2018-07-06T12:07:15.483Z,41.24
2018-07-06T12:09:44.001Z,39.04
2018-07-06T12:12:12.440Z,39.06
2018-07-06T12:14:41.075Z,39.00
2018-07-06T12:17:09.458Z,39.43
2018-07-06T12:19:37.851Z,39.94
2018-07-06T12:22:06.482Z,38.39
2018-07-06T12:24:34.857Z,37.62
2018-07-06T12:27:03.459Z,39.61
2018-07-06T12:29:31.952Z,38.75
2018-07-06T12:32:01.557Z,39.31
2018-07-06T12:34:30.238Z,38.70
2018-07-06T12:36:58.552Z,37.55
2018-07-06T12:39:26.845Z,37.55
2018-07-06T12:41:55.183Z,37.23
2018-07-06T12:44:23.515Z,39.16
2018-07-06T12:46:51.926Z,38.76
2018-07-06T12:49:20.790Z,39.35
2018-07-06T12:51:49.455Z,39.62
2018-07-06T12:54:17.759Z,38.22
2018-07-06T12:56:46.347Z,38.06
2018-07-06T12:59:14.763Z,38.60
2018-07-06T13:01:43.296Z,38.00
2018-07-06T13:04:11.931Z,37.60
2018-07-06T13:06:40.352Z,36.46
2018-07-06T13:09:08.844Z,36.89
2018-07-06T13:11:38.135Z,37.87
2018-07-06T13:14:06.757Z,37.25
2018-07-06T13:16:35.638Z,36.46
2018-07-06T13:19:04.136Z,36.26
2018-07-06T13:21:33.225Z,35.65
2018-07-06T13:24:01.619Z,36.48
2018-07-06T13:26:30.154Z,36.43
2018-07-06T13:28:58.462Z,37.22
2018-07-06T13:31:27.135Z,38.15
2018-07-06T13:33:55.634Z,37.84
2018-07-06T13:36:24.711Z,38.28
2018-07-06T13:38:53.485Z,40.70
2018-07-06T13:41:21.867Z,41.10
2018-07-06T13:43:50.411Z,41.33
2018-07-06T13:46:18.891Z,42.33
2018-07-06T13:48:47.553Z,41.32
2018-07-06T13:51:16.136Z,41.80
2018-07-06T13:53:44.616Z,42.38
2018-07-06T13:56:13.259Z,44.44
2018-07-06T13:58:42.085Z,45.31
2018-07-06T14:01:10.659Z,43.76
2018-07-06T14:03:40.362Z,42.58
2018-07-06T14:06:08.757Z,44.39
2018-07-06T14:08:44.351Z,44.00
2018-07-06T14:11:13.015Z,44.48
2018-07-06T14:13:41.692Z,45.49
2018-07-06T14:16:10.511Z,47.56
2018-07-06T14:18:39.089Z,49.33
2018-07-06T14:21:11.866Z,53.94
2018-07-06T14:23:40.446Z,60.16
2018-07-06T14:26:08.812Z,66.67
2018-07-06T14:28:37.506Z,72.86
2018-07-06T14:31:06.074Z,82.53
2018-07-06T14:33:34.350Z,95.46
2018-07-06T14:36:02.879Z,98.74
2018-07-06T14:38:31.170Z,98.00
2018-07-06T14:40:59.594Z,99.54
2018-07-06T14:44:04.666Z,100.00
2018-07-06T14:46:33.173Z,98.50
2018-07-06T14:49:05.758Z,99.61
2018-07-06T14:51:34.226Z,100.00
2018-07-06T14:54:02.629Z,99.85
2018-07-06T14:56:31.045Z,99.56
2018-07-06T14:58:59.314Z,99.75
2018-07-06T15:01:27.782Z,98.35
2018-07-06T15:03:56.076Z,99.49
2018-07-06T15:06:24.247Z,99.85
2018-07-06T15:08:52.633Z,100.00
2018-07-06T15:11:20.822Z,100.00
2018-07-06T15:13:49.156Z,98.16
2018-07-06T15:16:17.418Z,99.37
2018-07-06T15:18:45.710Z,98.22
2018-07-06T15:21:14.085Z,96.72
2018-07-06T15:23:42.480Z,93.34
2018-07-06T15:26:10.830Z,94.51
2018-07-06T15:28:39.152Z,94.47
2018-07-06T15:31:07.508Z,96.17
2018-07-06T15:33:35.995Z,93.09
2018-07-06T15:36:04.490Z,92.60
2018-07-06T15:38:32.911Z,93.50
2018-07-06T15:41:01.291Z,93.13
2018-07-06T15:43:29.624Z,92.71
2018-07-06T15:45:58.079Z,92.90
2018-07-06T15:48:26.373Z,94.35
2018-07-06T15:50:54.988Z,94.05
2018-07-06T15:53:23.841Z,93.15
2018-07-06T15:55:52.334Z,94.06
2018-07-06T15:58:20.952Z,92.26
2018-07-06T16:00:49.800Z,94.57
2018-07-06T16:03:18.501Z,90.13
2018-07-06T16:05:47.280Z,93.73
2018-07-06T16:08:15.749Z,90.45
2018-07-06T16:10:44.342Z,90.38
2018-07-06T16:13:12.789Z,91.71
2018-07-06T16:15:41.567Z,89.54
2018-07-06T16:18:10.123Z,91.95
2018-07-06T16:20:38.682Z,88.12
2018-07-06T16:23:07.277Z,89.48
2018-07-06T16:25:36.971Z,86.17
2018-07-06T16:28:05.504Z,87.73
2018-07-06T16:30:34.855Z,84.21
2018-07-06T16:33:03.633Z,88.26
2018-07-06T16:35:32.154Z,84.47
2018-07-06T16:38:01.233Z,84.12
2018-07-06T16:40:29.711Z,77.63
2018-07-06T16:42:58.095Z,80.75
2018-07-06T16:45:26.532Z,76.36
2018-07-06T16:47:55.378Z,77.59
2018-07-06T16:50:23.884Z,73.06
2018-07-06T16:52:53.045Z,73.84
2018-07-06T16:55:21.563Z,74.42
2018-07-06T16:57:49.853Z,72.87
2018-07-06T17:00:18.479Z,73.33
2018-07-06T17:02:46.891Z,65.83
2018-07-06T17:05:15.477Z,60.64
2018-07-06T17:07:43.909Z,62.25
2018-07-06T17:10:12.396Z,59.93
2018-07-06T17:12:40.758Z,57.42
2018-07-06T17:15:09.282Z,56.87
2018-07-06T17:17:37.843Z,50.02
2018-07-06T17:20:06.371Z,49.54
2018-07-06T17:22:35.910Z,46.78
2018-07-06T17:25:04.566Z,45.94
2018-07-06T17:27:33.201Z,47.32
2018-07-06T17:30:01.858Z,47.41
2018-07-06T17:32:30.313Z,51.70
2018-07-06T17:34:58.919Z,45.91
2018-07-06T17:37:27.275Z,46.06
2018-07-06T17:39:55.913Z,45.25
2018-07-06T17:42:24.380Z,46.91
2018-07-06T17:44:52.784Z,42.13
2018-07-06T17:47:21.169Z,43.06
2018-07-06T17:49:49.816Z,42.75
2018-07-06T17:52:18.358Z,43.91
2018-07-06T17:54:46.876Z,42.58
2018-07-06T17:57:15.465Z,41.91
2018-07-06T17:59:44.040Z,41.35
2018-07-06T18:02:13.827Z,39.69
2018-07-06T18:04:42.262Z,39.42
2018-07-06T18:07:10.564Z,39.08
2018-07-06T18:09:38.859Z,37.79
2018-07-06T18:12:07.560Z,38.96
2018-07-06T18:14:36.112Z,36.22
2018-07-06T18:17:04.374Z,29.95
2018-07-06T18:19:32.820Z,27.57
2018-07-06T18:22:01.328Z,27.12
2018-07-06T18:24:29.616Z,27.88
2018-07-06T18:26:58.151Z,27.72
2018-07-06T18:29:26.630Z,28.22
2018-07-06T18:31:54.862Z,28.25
2018-07-06T18:34:23.155Z,28.73
2018-07-06T18:36:51.364Z,28.14
2018-07-06T18:39:19.674Z,28.09
2018-07-06T18:41:47.951Z,27.27
2018-07-06T18:44:16.191Z,27.90
2018-07-06T18:46:44.665Z,28.01
2018-07-06T18:49:13.323Z,28.12
2018-07-06T18:51:41.600Z,28.26
2018-07-06T18:54:09.966Z,27.91
2018-07-06T18:56:38.152Z,28.40
2018-07-06T18:59:06.985Z,28.35
2018-07-06T19:01:35.212Z,28.58
2018-07-06T19:04:03.476Z,29.15
2018-07-06T19:06:31.822Z,28.80
2018-07-06T19:09:00.193Z,29.34
2018-07-06T19:11:28.480Z,29.04
2018-07-06T19:13:56.728Z,28.71
2018-07-06T19:16:24.959Z,30.63
2018-07-06T19:18:53.354Z,31.80
2018-07-06T19:21:21.637Z,31.67
2018-07-06T19:23:49.926Z,32.81
2018-07-06T19:26:18.298Z,32.72
2018-07-06T19:28:46.676Z,32.55
2018-07-06T19:31:15.332Z,33.11
2018-07-06T19:33:43.559Z,34.54
2018-07-06T19:36:11.789Z,34.60
2018-07-06T19:38:39.999Z,34.07
2018-07-06T19:41:08.444Z,35.57
2018-07-06T19:43:36.656Z,37.27
2018-07-06T19:46:05.334Z,38.63
2018-07-06T19:48:33.632Z,38.54
2018-07-06T19:51:01.851Z,39.80
2018-07-06T19:53:30.168Z,40.79
2018-07-06T19:55:58.555Z,41.19
2018-07-06T19:58:26.921Z,41.65
2018-07-06T20:00:55.590Z,41.34
2018-07-06T20:03:24.049Z,42.42
2018-07-06T20:05:52.420Z,42.04
2018-07-06T20:08:20.799Z,42.30
2018-07-06T20:10:49.312Z,41.80
2018-07-06T20:13:17.632Z,42.14
2018-07-06T20:15:46.035Z,42.95
2018-07-06T20:18:14.544Z,43.74
2018-07-06T20:20:42.871Z,43.64
2018-07-06T20:23:11.228Z,44.48
2018-07-06T20:25:39.731Z,44.23
2018-07-06T20:28:08.444Z,44.27
2018-07-06T20:30:37.182Z,44.41
2018-07-06T20:33:05.530Z,45.43
2018-07-06T20:35:33.961Z,44.99
2018-07-06T20:38:02.431Z,45.45
2018-07-06T20:40:30.948Z,45.26
2018-07-06T20:42:59.546Z,45.64
2018-07-06T20:45:27.890Z,47.17
2018-07-06T20:47:56.985Z,46.20
2018-07-06T20:50:25.379Z,46.15
2018-07-06T20:52:53.892Z,45.89
2018-07-06T20:55:22.349Z,46.34
2018-07-06T20:57:50.756Z,46.16
2018-07-06T21:00:19.026Z,45.87
2018-07-06T21:02:47.340Z,46.68
2018-07-06T21:05:16.566Z,46.11
2018-07-06T21:07:44.935Z,46.33
2018-07-06T21:10:13.140Z,46.70
2018-07-06T21:12:41.575Z,46.35
2018-07-06T21:15:09.935Z,45.76
2018-07-06T21:17:38.266Z,46.31
2018-07-06T21:20:06.547Z,46.76
2018-07-06T21:22:34.781Z,47.11
2018-07-06T21:25:03.344Z,47.67
2018-07-06T21:27:31.664Z,47.54
2018-07-06T21:30:00.149Z,46.70
2018-07-06T21:32:28.522Z,47.28
2018-07-06T21:34:56.797Z,47.16
2018-07-06T21:37:25.142Z,47.63
2018-07-06T21:39:53.522Z,47.72
2018-07-06T21:42:21.939Z,47.58
2018-07-06T21:44:50.185Z,48.39
2018-07-06T21:47:18.871Z,49.75
2018-07-06T21:49:48.260Z,49.56
2018-07-06T21:52:17.405Z,49.83
2018-07-06T21:54:46.221Z,49.62
2018-07-06T21:57:15.746Z,49.50
2018-07-06T21:59:44.950Z,48.93
2018-07-06T22:02:14.916Z,49.10
2018-07-06T22:04:46.866Z,49.45
2018-07-06T22:07:16.165Z,49.46
2018-07-06T22:09:45.272Z,49.71
2018-07-06T22:12:13.760Z,49.79
2018-07-06T22:14:42.148Z,49.94
2018-07-06T22:17:10.564Z,50.06
2018-07-06T22:19:39.128Z,50.33
2018-07-06T22:22:07.468Z,49.66
2018-07-06T22:24:37.049Z,49.68
2018-07-06T22:27:06.356Z,50.04
2018-07-06T22:29:34.897Z,50.42
2018-07-06T22:32:04.929Z,50.41
2018-07-06T22:34:34.568Z,49.74
2018-07-06T22:37:03.130Z,50.19
2018-07-06T22:39:32.056Z,50.54
2018-07-06T22:42:00.796Z,50.00
2018-07-06T22:44:29.135Z,50.57
2018-07-06T22:46:57.666Z,50.73
2018-07-06T22:49:26.040Z,50.57
2018-07-06T22:51:54.231Z,50.67
2018-07-06T22:54:23.336Z,49.86
2018-07-06T22:56:52.432Z,50.54
2018-07-06T22:59:25.458Z,51.00
2018-07-06T23:01:54.056Z,51.51
2018-07-06T23:04:22.598Z,50.65
2018-07-06T23:06:52.786Z,50.80
2018-07-06T23:09:21.187Z,50.84
2018-07-06T23:11:49.524Z,50.48
2018-07-06T23:14:17.815Z,50.67
2018-07-06T23:16:47.067Z,50.46
2018-07-06T23:19:16.657Z,50.41
2018-07-06T23:21:45.161Z,51.52
2018-07-06T23:24:13.825Z,51.53
2018-07-06T23:26:42.858Z,51.35
2018-07-06T23:29:12.088Z,51.94
2018-07-06T23:31:40.435Z,51.77
2018-07-06T23:34:08.837Z,52.14
2018-07-06T23:36:37.093Z,52.17
2018-07-06T23:39:05.506Z,52.44
2018-07-06T23:41:33.951Z,52.74
2018-07-06T23:44:03.012Z,52.58
2018-07-06T23:46:31.502Z,52.54
2018-07-06T23:49:00.139Z,52.18
2018-07-06T23:51:28.468Z,51.72
2018-07-06T23:53:57.322Z,52.31
2018-07-06T23:56:25.998Z,52.83
2018-07-06T23:58:59.738Z,52.37
